Time;durP1;ratioP1;P1;durP2;ratioP2;P2;SDS_P1;SDS_P2;PMS_P1;PMS_P2;Temp;Humidity;BMP_temperature;BMP_pressure;BME280_temperature;BME280_humidity;BME280_pressure;Samples;Min_cycle;Max_cycle;Signal;HPM_P1;HPM_P2
2024/03/11 00:00:19;;;;;;;1.92;1.20;;;;;;;3.06;100.00;91334.41;5039982;28;20040;-87
2024/03/11 00:02:45;;;;;;;1.90;1.20;;;;;;;3.15;100.00;91341.59;5073449;28;20071;-87
2024/03/11 00:05:11;;;;;;;1.60;1.20;;;;;;;3.11;100.00;91338.78;5081302;28;20059;-84
2024/03/11 00:07:37;;;;;;;1.85;1.20;;;;;;;3.03;100.00;91342.69;5082979;28;20526;-86
2024/03/11 00:10:11;;;;;;;2.45;1.45;;;;;;;3.01;100.00;91341.41;5071379;28;20060;-86
2024/03/11 00:12:41;;;;;;;1.38;1.10;;;;;;;2.97;100.00;91338.56;5085815;28;20044;-86
2024/03/11 00:15:09;;;;;;;1.65;1.25;;;;;;;2.92;100.00;91338.59;5079984;28;20033;-87
2024/03/11 00:17:34;;;;;;;2.33;1.17;;;;;;;2.85;100.00;91338.91;5087513;28;20115;-86
2024/03/11 00:20:00;;;;;;;1.55;1.15;;;;;;;2.87;100.00;91346.41;5059978;28;20059;-84
2024/03/11 00:22:25;;;;;;;1.40;1.10;;;;;;;2.92;100.00;91351.53;5083913;28;20033;-85
2024/03/11 00:24:51;;;;;;;1.90;1.30;;;;;;;2.93;100.00;91353.09;5079997;28;20479;-85
2024/03/11 00:27:17;;;;;;;1.33;1.10;;;;;;;2.84;100.00;91344.34;5064579;28;20115;-84
2024/03/11 00:29:42;;;;;;;2.53;1.20;;;;;;;2.88;100.00;91360.84;5077771;28;20067;-86
2024/03/11 00:32:09;;;;;;;1.20;1.10;;;;;;;2.83;100.00;91359.06;5084078;28;20039;-87
2024/03/11 00:34:35;;;;;;;0.82;0.82;;;;;;;2.83;100.00;91360.88;5081349;28;20123;-85
2024/03/11 00:37:01;;;;;;;1.90;1.15;;;;;;;2.86;100.00;91357.75;5080203;28;20052;-86
2024/03/11 00:39:27;;;;;;;1.30;1.00;;;;;;;2.86;100.00;91360.34;5082335;28;20032;-87
2024/03/11 00:41:52;;;;;;;1.42;1.10;;;;;;;2.85;100.00;91356.22;5066798;28;20039;-87
2024/03/11 00:44:21;;;;;;;1.08;0.90;;;;;;;2.88;100.00;91368.59;5081207;28;20526;-87
2024/03/11 00:46:49;;;;;;;1.00;0.90;;;;;;;2.88;100.00;91360.84;5082447;28;20067;-86
2024/03/11 00:49:16;;;;;;;1.42;1.17;;;;;;;2.95;100.00;91365.72;5080703;28;20032;-87
2024/03/11 00:51:42;;;;;;;1.13;1.02;;;;;;;2.85;100.00;91366.56;5079019;28;20030;-87
2024/03/11 00:54:07;;;;;;;1.25;1.10;;;;;;;2.82;100.00;91369.69;5085259;28;20040;-84
2024/03/11 00:56:33;;;;;;;1.60;1.08;;;;;;;2.79;100.00;91368.41;5084113;28;20032;-87
2024/03/11 00:58:59;;;;;;;1.33;1.15;;;;;;;2.68;100.00;91361.75;5067955;28;20028;-84
2024/03/11 01:01:25;;;;;;;1.38;1.10;;;;;;;2.69;100.00;91369.22;5068828;28;20040;-84
2024/03/11 01:03:53;;;;;;;1.27;0.98;;;;;;;2.63;100.00;91354.00;5085298;28;20509;-85
2024/03/11 01:06:19;;;;;;;1.15;1.02;;;;;;;2.77;100.00;91357.56;5079335;28;20030;-88
2024/03/11 01:08:46;;;;;;;2.00;1.20;;;;;;;2.75;100.00;91356.25;5087315;28;20039;-84
2024/03/11 01:11:12;;;;;;;1.77;1.00;;;;;;;2.74;100.00;91360.66;5086865;28;20040;-86
2024/03/11 01:13:38;;;;;;;1.50;1.40;;;;;;;2.71;100.00;91367.13;5085974;28;20036;-86
2024/03/11 01:16:04;;;;;;;1.48;1.20;;;;;;;2.70;100.00;91378.53;5088981;28;20032;-85
2024/03/11 01:18:29;;;;;;;1.55;1.20;;;;;;;2.68;100.00;91367.69;5082664;28;20039;-87
2024/03/11 01:20:55;;;;;;;2.50;1.20;;;;;;;2.68;100.00;91370.25;5088912;28;20032;-86
2024/03/11 01:23:22;;;;;;;1.10;1.00;;;;;;;2.67;100.00;91371.28;5067828;28;20427;-87
2024/03/11 01:25:48;;;;;;;1.92;1.10;;;;;;;2.59;100.00;91351.19;5071701;28;20470;-88
2024/03/11 01:28:13;;;;;;;2.13;1.00;;;;;;;2.63;100.00;91367.69;5058556;28;20040;-88
2024/03/11 01:30:39;;;;;;;2.47;0.98;;;;;;;2.63;100.00;91367.69;5075058;28;20040;-85
2024/03/11 01:33:05;;;;;;;0.90;0.90;;;;;;;2.59;100.00;91364.09;5076163;28;20044;-87
2024/03/11 01:35:31;;;;;;;0.95;0.88;;;;;;;2.59;100.00;91364.09;5076484;28;20083;-87
2024/03/11 01:37:57;;;;;;;0.85;0.85;;;;;;;2.57;100.00;91357.63;5069762;28;20036;-87
2024/03/11 01:40:27;;;;;;;1.40;0.95;;;;;;;2.57;100.00;91355.84;5079403;28;20028;-87
2024/03/11 01:42:54;;;;;;;1.00;0.90;;;;;;;2.52;100.00;91347.31;5071572;28;20036;-87
2024/03/11 01:45:22;;;;;;;1.00;0.90;;;;;;;2.57;100.00;91355.03;5074549;28;20029;-85
2024/03/11 01:47:48;;;;;;;1.08;0.98;;;;;;;2.56;100.00;91354.28;5078089;28;20422;-86
2024/03/11 01:50:16;;;;;;;1.35;1.10;;;;;;;2.56;100.00;91349.09;5072464;28;20036;-85
2024/03/11 01:53:03;;;;;;;0.80;0.80;;;;;;;2.58;100.00;91338.53;5079747;28;20051;-86
2024/03/11 01:55:30;;;;;;;1.10;1.00;;;;;;;2.56;100.00;91343.19;5074245;28;20494;-85
2024/03/11 01:58:03;;;;;;;0.82;0.82;;;;;;;2.54;100.00;91335.69;5087237;28;20029;-86
2024/03/11 02:00:28;;;;;;;1.27;1.00;;;;;;;2.52;100.00;91339.56;5083178;28;20043;-85
2024/03/11 02:02:54;;;;;;;1.00;0.82;;;;;;;2.51;100.00;91338.81;5048330;28;20425;-85
2024/03/11 02:05:22;;;;;;;0.90;0.90;;;;;;;2.52;100.00;91348.09;5081262;28;20120;-86
2024/03/11 02:07:52;;;;;;;0.90;0.90;;;;;;;2.53;100.00;91348.88;5087784;28;20031;-86
2024/03/11 02:10:20;;;;;;;1.02;0.90;;;;;;;2.53;100.00;91338.53;5076904;28;20036;-86
2024/03/11 02:12:46;;;;;;;1.02;0.95;;;;;;;2.52;100.00;91340.34;5072455;28;20452;-85
2024/03/11 02:15:17;;;;;;;1.40;1.27;;;;;;;2.45;100.00;91324.34;5081409;28;20097;-86
2024/03/11 02:17:44;;;;;;;0.90;0.90;;;;;;;2.53;100.00;91343.72;5080465;28;20044;-84
2024/03/11 02:20:15;;;;;;;1.10;1.00;;;;;;;2.46;100.00;91328.50;5079279;28;20036;-87
2024/03/11 02:22:49;;;;;;;1.88;1.00;;;;;;;2.48;100.00;91327.19;5079852;28;20082;-87
2024/03/11 02:25:17;;;;;;;1.50;1.10;;;;;;;2.51;100.00;91336.22;5079913;28;20024;-88
2024/03/11 02:27:45;;;;;;;0.85;0.85;;;;;;;2.49;100.00;91326.13;5079620;28;20439;-85
2024/03/11 02:30:11;;;;;;;1.00;0.90;;;;;;;2.49;100.00;91323.56;5079604;28;20095;-87
2024/03/11 02:32:37;;;;;;;0.98;0.90;;;;;;;2.48;100.00;91321.25;5074342;28;20046;-87
2024/03/11 02:35:03;;;;;;;1.10;1.00;;;;;;;2.45;100.00;91321.75;5078236;28;20052;-86
2024/03/11 02:37:29;;;;;;;0.82;0.82;;;;;;;2.48;100.00;91329.00;5084844;28;20411;-84
2024/03/11 02:39:55;;;;;;;1.30;1.00;;;;;;;2.54;100.00;91340.84;5084997;28;20036;-86
2024/03/11 02:42:21;;;;;;;0.82;0.82;;;;;;;2.61;100.00;91332.81;5085646;28;20057;-86
2024/03/11 02:44:48;;;;;;;1.65;0.90;;;;;;;2.59;100.00;91334.88;5078179;28;20080;-87
2024/03/11 02:47:14;;;;;;;1.23;1.00;;;;;;;2.54;100.00;91329.75;5084027;28;20024;-87
2024/03/11 02:49:41;;;;;;;1.10;1.00;;;;;;;2.57;100.00;91335.16;5085380;28;20529;-86
2024/03/11 02:52:07;;;;;;;1.33;1.00;;;;;;;2.54;100.00;91327.94;5070115;28;20432;-86
2024/03/11 02:54:33;;;;;;;0.80;0.80;;;;;;;2.56;100.00;91322.50;5084122;28;20066;-87
2024/03/11 02:56:59;;;;;;;0.93;0.90;;;;;;;2.59;100.00;91332.31;5071393;28;20040;-85
2024/03/11 02:59:24;;;;;;;0.80;0.80;;;;;;;2.54;100.00;91330.50;5084406;28;20047;-87
2024/03/11 03:01:50;;;;;;;0.90;0.90;;;;;;;2.57;100.00;91330.00;5087133;28;20112;-87
2024/03/11 03:04:20;;;;;;;1.42;0.80;;;;;;;2.58;100.00;91330.75;5079019;28;20068;-84
2024/03/11 03:06:45;;;;;;;0.70;0.70;;;;;;;2.60;100.00;91326.88;5083594;28;20032;-87
2024/03/11 03:09:11;;;;;;;1.15;1.00;;;;;;;2.59;100.00;91324.53;5086392;28;20040;-83
2024/03/11 03:11:39;;;;;;;2.05;1.13;;;;;;;2.56;100.00;91318.09;5078169;28;20032;-87
2024/03/11 03:14:06;;;;;;;1.98;1.25;;;;;;;2.58;100.00;91321.19;5086357;28;20121;-84
2024/03/11 03:16:32;;;;;;;1.10;1.00;;;;;;;2.57;100.00;91311.91;5085734;28;20027;-86
2024/03/11 03:18:58;;;;;;;1.38;1.15;;;;;;;2.54;100.00;91309.06;5082336;28;20063;-85
2024/03/11 03:21:25;;;;;;;1.15;0.85;;;;;;;2.55;100.00;91306.25;5085242;28;20093;-86
2024/03/11 03:23:51;;;;;;;2.80;1.10;;;;;;;2.59;100.00;91311.63;5066670;28;20040;-86
2024/03/11 03:26:17;;;;;;;1.17;1.00;;;;;;;2.56;100.00;91300.03;5086972;28;20407;-86
2024/03/11 03:28:42;;;;;;;1.00;0.90;;;;;;;2.51;100.00;91294.88;5089670;28;20036;-87
2024/03/11 03:31:09;;;;;;;1.73;1.20;;;;;;;2.58;100.00;91304.94;5090178;28;20343;-85
2024/03/11 03:33:35;;;;;;;3.15;1.10;;;;;;;2.56;100.00;91307.00;5088057;28;20485;-87
2024/03/11 03:36:02;;;;;;;1.35;1.10;;;;;;;2.49;100.00;91305.47;5083960;28;20052;-86
2024/03/11 03:38:28;;;;;;;1.20;1.10;;;;;;;2.48;100.00;91303.19;5077788;28;20050;-87
2024/03/11 03:40:53;;;;;;;1.27;1.10;;;;;;;2.48;100.00;91303.19;5081728;28;20032;-85
2024/03/11 03:43:19;;;;;;;1.10;1.00;;;;;;;2.48;100.00;91306.53;5077387;28;20115;-86
2024/03/11 03:45:44;;;;;;;1.40;1.10;;;;;;;2.48;100.00;91303.19;5083443;28;20024;-84
2024/03/11 03:48:11;;;;;;;1.23;1.00;;;;;;;2.44;100.00;91299.56;5084054;28;20033;-85
2024/03/11 03:50:37;;;;;;;3.13;1.00;;;;;;;2.47;100.00;91301.63;5083216;28;20183;-84
2024/03/11 03:53:03;;;;;;;1.23;1.13;;;;;;;2.46;100.00;91303.44;5073860;28;20112;-85
2024/03/11 03:55:29;;;;;;;1.15;1.00;;;;;;;2.46;100.00;91297.50;5080138;28;20032;-84
2024/03/11 03:57:54;;;;;;;1.27;1.00;;;;;;;2.41;100.00;91289.75;5078530;28;20067;-86
2024/03/11 04:00:20;;;;;;;0.80;0.80;;;;;;;2.43;100.00;91298.00;5081761;28;20058;-84
2024/03/11 04:02:50;;;;;;;1.20;1.00;;;;;;;2.42;100.00;91297.25;5066662;28;20043;-84
2024/03/11 04:05:18;;;;;;;0.90;0.90;;;;;;;2.46;100.00;91289.75;5079357;28;20033;-86
2024/03/11 04:07:44;;;;;;;0.90;0.90;;;;;;;2.45;100.00;91288.19;5067039;28;20501;-85
2024/03/11 04:10:14;;;;;;;1.00;0.90;;;;;;;2.45;100.00;91298.53;5082687;28;20068;-88
2024/03/11 04:12:50;;;;;;;0.80;0.80;;;;;;;2.42;100.00;91284.31;5068825;28;20032;-86
2024/03/11 04:15:21;;;;;;;2.00;0.80;;;;;;;2.45;100.00;91288.19;5084952;28;20355;-88
2024/03/11 04:17:53;;;;;;;1.20;0.90;;;;;;;2.45;100.00;91296.69;5077327;28;20036;-87
2024/03/11 04:20:22;;;;;;;;;;;;;;;2.44;100.00;91299.56;5083793;28;20045;-87
2024/03/11 04:22:53;;;;;;;0.85;0.82;;;;;;;2.43;100.00;91290.25;5085763;28;20516;-87
2024/03/11 04:25:25;;;;;;;1.08;0.98;;;;;;;2.40;100.00;91283.81;5080680;28;20089;-87
2024/03/11 04:27:51;;;;;;;1.55;0.70;;;;;;;2.44;100.00;91292.59;5081870;28;20144;-87
2024/03/11 04:30:21;;;;;;;0.90;0.90;;;;;;;2.45;100.00;91288.94;5081212;28;20162;-83
2024/03/11 04:32:54;;;;;;;0.73;0.73;;;;;;;2.44;100.00;91291.81;5088264;28;20091;-83
2024/03/11 04:35:25;;;;;;;1.10;0.85;;;;;;;2.47;100.00;91292.03;5085350;28;20052;-87
2024/03/11 04:37:56;;;;;;;0.80;0.80;;;;;;;2.49;100.00;91291.78;5084310;28;20086;-87
2024/03/11 04:40:26;;;;;;;0.95;0.90;;;;;;;2.50;100.00;91293.34;5081598;28;20042;-86
2024/03/11 04:42:54;;;;;;;1.45;0.88;;;;;;;2.46;100.00;91289.75;5086555;28;20039;-86
2024/03/11 04:45:20;;;;;;;0.73;0.73;;;;;;;2.48;100.00;91291.03;5081844;28;20111;-87
2024/03/11 04:47:45;;;;;;;0.80;0.80;;;;;;;2.51;100.00;91294.88;5066529;28;20066;-85
2024/03/11 04:50:12;;;;;;;1.42;1.02;;;;;;;2.44;100.00;91295.16;5082084;28;20526;-86
2024/03/11 04:52:38;;;;;;;1.30;1.10;;;;;;;2.41;100.00;91292.34;5084601;28;20036;-84
2024/03/11 04:55:06;;;;;;;1.52;0.98;;;;;;;2.42;100.00;91301.66;5080765;28;20397;-84
2024/03/11 04:57:33;;;;;;;1.17;1.00;;;;;;;2.40;100.00;91304.47;5083971;28;20445;-87
2024/03/11 04:59:58;;;;;;;1.25;0.95;;;;;;;2.38;100.00;91303.19;5084582;28;20115;-82
2024/03/11 05:02:24;;;;;;;1.13;1.02;;;;;;;2.36;100.00;91308.63;5077145;28;20605;-85
2024/03/11 05:04:50;;;;;;;0.70;0.70;;;;;;;2.35;100.00;91321.81;5048465;28;20028;-85
2024/03/11 05:07:15;;;;;;;1.13;1.02;;;;;;;2.34;100.00;91318.44;5048180;28;20403;-85
2024/03/11 05:09:41;;;;;;;0.73;0.73;;;;;;;2.33;100.00;91318.72;5083587;28;20054;-83
2024/03/11 05:12:07;;;;;;;1.10;1.00;;;;;;;2.33;100.00;91316.16;5069708;28;20093;-85
2024/03/11 05:14:33;;;;;;;1.58;0.90;;;;;;;2.32;100.00;91312.00;5081392;28;20028;-84
2024/03/11 05:16:59;;;;;;;0.90;0.90;;;;;;;2.27;100.00;91311.00;5086663;28;20063;-86
2024/03/11 05:19:25;;;;;;;1.77;1.13;;;;;;;2.26;100.00;91324.94;5071765;28;20482;-84
2024/03/11 05:21:51;;;;;;;0.95;0.90;;;;;;;2.24;100.00;91323.66;5086044;28;20031;-84
2024/03/11 05:24:18;;;;;;;0.80;0.80;;;;;;;2.16;100.00;91322.41;5085506;28;20475;-85
2024/03/11 05:26:45;;;;;;;1.13;0.93;;;;;;;2.16;100.00;91319.81;5078939;28;20032;-85
2024/03/11 05:29:13;;;;;;;5.90;1.33;;;;;;;2.16;100.00;91329.34;5082301;28;20535;-86
2024/03/11 05:31:38;;;;;;;1.25;1.10;;;;;;;2.09;100.00;91319.31;5084119;28;20084;-87
2024/03/11 05:34:04;;;;;;;1.38;1.00;;;;;;;2.08;100.00;91322.94;5070592;28;20395;-86
2024/03/11 05:36:30;;;;;;;2.72;1.20;;;;;;;2.03;100.00;91322.94;5106602;28;20375;-85
2024/03/11 05:38:55;;;;;;;0.80;0.80;;;;;;;1.98;100.00;91322.94;5102688;28;20047;-87
2024/03/11 05:41:22;;;;;;;1.40;1.13;;;;;;;1.93;100.00;91330.69;5091138;28;20077;-87
2024/03/11 05:43:47;;;;;;;2.08;0.90;;;;;;;1.86;100.00;91323.22;5089741;28;20435;-86
2024/03/11 05:46:13;;;;;;;1.10;1.00;;;;;;;1.85;100.00;91337.94;5091332;28;20165;-83
2024/03/11 05:48:39;;;;;;;1.05;0.95;;;;;;;1.77;100.00;91328.13;5094536;28;20103;-85
2024/03/11 05:51:05;;;;;;;2.35;1.20;;;;;;;1.76;100.00;91331.78;5074339;28;20035;-85
2024/03/11 05:53:34;;;;;;;1.27;1.00;;;;;;;1.73;100.00;91327.09;5093603;28;20514;-88
2024/03/11 05:56:02;;;;;;;3.78;1.00;;;;;;;1.69;100.00;91336.44;5103544;28;20036;-85
2024/03/11 05:58:28;;;;;;;1.58;1.10;;;;;;;1.71;100.00;91341.31;5104336;28;20034;-85
2024/03/11 06:00:57;;;;;;;1.30;1.10;;;;;;;1.72;100.00;91343.63;5098342;28;20449;-85
2024/03/11 06:03:23;;;;;;;1.85;1.10;;;;;;;1.64;100.00;91339.00;5092837;28;20784;-87
2024/03/11 06:05:49;;;;;;;1.35;1.10;;;;;;;1.78;100.00;91357.28;5094124;28;20112;-85
2024/03/11 06:08:15;;;;;;;1.08;0.98;;;;;;;1.80;100.00;91353.44;5096105;28;20032;-84
2024/03/11 06:10:41;;;;;;;1.25;1.10;;;;;;;1.96;100.00;91355.97;5101794;28;20052;-82
2024/03/11 06:13:07;;;;;;;1.10;1.00;;;;;;;2.81;100.00;91353.38;5102100;28;20039;-82
2024/03/11 06:15:33;;;;;;;1.60;1.10;;;;;;;3.62;100.00;91348.75;5103954;28;20084;-82
2024/03/11 06:17:58;;;;;;;2.13;1.13;;;;;;;4.10;100.00;91346.28;5103892;28;20255;-84
2024/03/11 06:20:24;;;;;;;1.02;0.93;;;;;;;4.31;100.00;91352.03;5099079;28;20036;-84
2024/03/11 06:22:49;;;;;;;1.08;0.90;;;;;;;4.91;100.00;91356.81;5104334;28;20270;-84
2024/03/11 06:25:15;;;;;;;0.90;0.90;;;;;;;5.34;100.00;91359.34;5097704;28;20046;-84
2024/03/11 06:27:43;;;;;;;1.25;0.90;;;;;;;5.70;100.00;91365.88;5106877;28;20027;-84
2024/03/11 06:30:09;;;;;;;1.30;1.08;;;;;;;6.15;100.00;91366.97;5096227;28;20131;-82
2024/03/11 06:32:35;;;;;;;0.98;0.90;;;;;;;6.52;100.00;91373.09;5096579;28;20046;-81
2024/03/11 06:35:00;;;;;;;1.55;1.20;;;;;;;6.93;100.00;91371.56;5100798;28;20317;-82
2024/03/11 06:37:27;;;;;;;1.23;1.00;;;;;;;7.45;100.00;91366.84;5101866;28;20486;-81
2024/03/11 06:39:52;;;;;;;0.98;0.90;;;;;;;8.03;100.00;91373.88;5099303;28;20446;-83
2024/03/11 06:42:18;;;;;;;1.23;1.10;;;;;;;8.57;100.00;91367.91;5104005;28;20036;-80
2024/03/11 06:44:44;;;;;;;0.95;0.90;;;;;;;9.24;100.00;91372.13;5099904;28;20028;-83
2024/03/11 06:47:14;;;;;;;1.30;1.00;;;;;;;9.75;100.00;91370.63;5106984;28;20027;-83
2024/03/11 06:49:40;;;;;;;1.10;0.95;;;;;;;9.61;100.00;91370.75;5106344;28;20063;-82
2024/03/11 06:52:06;;;;;;;1.30;1.05;;;;;;;10.20;100.00;91370.31;5106427;28;20456;-82
2024/03/11 06:54:33;;;;;;;2.30;1.13;;;;;;;9.88;100.00;91379.38;5100461;28;20043;-83
2024/03/11 06:57:00;;;;;;;1.17;1.00;;;;;;;9.96;100.00;91382.00;5106433;28;20038;-83
2024/03/11 06:59:26;;;;;;;1.42;1.00;;;;;;;9.96;100.00;91382.00;5110210;28;20036;-85
2024/03/11 07:01:51;;;;;;;1.55;1.17;;;;;;;10.29;100.00;91371.09;5105185;27;20814;-85
2024/03/11 07:04:17;;;;;;;2.13;1.00;;;;;;;10.94;100.00;91381.50;5090212;28;20490;-83
2024/03/11 07:06:44;;;;;;;1.33;1.10;;;;;;;11.63;100.00;91385.59;5101674;28;20039;-85
2024/03/11 07:09:10;;;;;;;3.00;1.20;;;;;;;12.41;100.00;91379.00;5103213;28;20497;-83
2024/03/11 07:11:37;;;;;;;0.80;0.80;;;;;;;12.18;96.84;91387.22;5104416;28;20038;-84
2024/03/11 07:14:03;;;;;;;1.27;1.10;;;;;;;12.04;100.00;91384.09;5100834;28;20538;-84
2024/03/11 07:16:31;;;;;;;1.45;1.08;;;;;;;11.45;100.00;91390.94;5104152;28;20034;-84
2024/03/11 07:18:57;;;;;;;0.88;0.88;;;;;;;10.75;100.00;91384.50;5098386;28;20135;-84
2024/03/11 07:21:27;;;;;;;1.60;1.10;;;;;;;10.63;100.00;91383.31;5093992;28;20076;-85
2024/03/11 07:23:56;;;;;;;1.77;0.93;;;;;;;11.98;100.00;91380.13;5102006;28;20093;-87
2024/03/11 07:26:22;;;;;;;1.58;1.00;;;;;;;12.14;100.00;91388.19;5100990;28;20566;-82
2024/03/11 07:28:47;;;;;;;1.95;1.00;;;;;;;11.78;98.20;91384.28;5098445;28;20043;-84
2024/03/11 07:31:13;;;;;;;1.30;0.95;;;;;;;10.96;100.00;91384.56;5100068;28;20028;-85
2024/03/11 07:33:39;;;;;;;235.15;6.07;;;;;;;9.91;100.00;91392.63;5098245;28;20557;-85
2024/03/11 07:36:07;;;;;;;27.13;2.08;;;;;;;9.32;100.00;91390.41;5099657;28;20044;-83
2024/03/11 07:38:32;;;;;;;3.40;1.50;;;;;;;8.88;100.00;91397.34;5104757;28;20036;-84
2024/03/11 07:40:58;;;;;;;2.40;1.38;;;;;;;8.81;100.00;91399.63;5106891;28;20110;-85
2024/03/11 07:43:24;;;;;;;3.70;1.98;;;;;;;8.37;100.00;91393.38;5107869;28;20178;-82
2024/03/11 07:45:49;;;;;;;8.43;2.20;;;;;;;7.78;100.00;91403.88;5097925;28;20366;-83
2024/03/11 07:48:15;;;;;;;7.10;2.10;;;;;;;7.63;100.00;91407.59;5104252;28;20050;-80
2024/03/11 07:50:42;;;;;;;3.15;1.90;;;;;;;7.49;100.00;91401.66;5102181;28;20062;-82
2024/03/11 07:53:08;;;;;;;2.58;1.63;;;;;;;7.76;100.00;91405.25;5108576;28;20032;-82
2024/03/11 07:55:35;;;;;;;3.45;1.90;;;;;;;8.20;100.00;91398.53;5101108;28;20043;-82
2024/03/11 07:58:01;;;;;;;2.65;1.60;;;;;;;8.52;100.00;91406.09;5097138;28;20039;-83
2024/03/11 08:00:29;;;;;;;2.40;1.52;;;;;;;8.34;100.00;91404.41;5103277;28;20058;-83
2024/03/11 08:02:59;;;;;;;2.58;1.80;;;;;;;8.24;100.00;91407.25;5102410;28;20039;-82
2024/03/11 08:05:25;;;;;;;3.08;1.77;;;;;;;8.21;100.00;91411.25;5104194;28;20055;-84
2024/03/11 08:07:51;;;;;;;2.35;1.45;;;;;;;8.03;100.00;91415.56;5104152;28;20771;-82
2024/03/11 08:10:18;;;;;;;3.42;1.70;;;;;;;7.78;100.00;91413.53;5109525;27;20421;-83
2024/03/11 08:12:45;;;;;;;2.50;1.48;;;;;;;8.08;100.00;91412.06;5102598;28;20039;-83
2024/03/11 08:15:14;;;;;;;2.53;1.52;;;;;;;8.25;100.00;91406.22;5110060;28;20419;-80
2024/03/11 08:17:46;;;;;;;3.55;2.00;;;;;;;7.67;100.00;91416.34;5108110;28;20357;-82
2024/03/11 08:20:16;;;;;;;2.47;1.63;;;;;;;7.80;100.00;91419.22;5109304;28;20039;-83
2024/03/11 08:22:45;;;;;;;3.38;2.00;;;;;;;7.47;100.00;91419.41;5108863;28;20070;-82
2024/03/11 08:25:11;;;;;;;5.35;2.30;;;;;;;7.74;100.00;91412.59;5110706;28;20028;-82
2024/03/11 08:27:37;;;;;;;4.07;2.35;;;;;;;7.87;100.00;91416.97;5110582;28;20055;-82
2024/03/11 08:30:07;;;;;;;3.60;2.10;;;;;;;8.10;100.00;91415.91;5110119;28;20039;-81
2024/03/11 08:32:36;;;;;;;3.72;2.20;;;;;;;8.31;100.00;91416.22;5107707;28;20622;-82
2024/03/11 08:35:03;;;;;;;5.32;1.83;;;;;;;8.40;100.00;91424.13;5107596;28;20044;-83
2024/03/11 08:37:28;;;;;;;2.42;1.60;;;;;;;8.81;100.00;91412.66;5110559;28;20067;-81
2024/03/11 08:39:54;;;;;;;3.15;1.92;;;;;;;9.03;100.00;91414.44;5107642;28;20035;-82
2024/03/11 08:42:20;;;;;;;4.32;2.67;;;;;;;9.68;100.00;91422.56;5109633;28;20035;-83
2024/03/11 08:44:47;;;;;;;2.90;1.88;;;;;;;9.90;100.00;91419.06;5105492;28;20106;-83
2024/03/11 08:47:12;;;;;;;3.70;2.30;;;;;;;9.84;100.00;91420.28;5101851;28;20134;-83
2024/03/11 08:49:39;;;;;;;10.82;2.92;;;;;;;9.76;100.00;91419.97;5108423;28;20344;-83
2024/03/11 08:52:08;;;;;;;6.57;2.83;;;;;;;9.21;100.00;91425.72;5104172;28;20040;-83
2024/03/11 08:54:35;;;;;;;3.50;2.25;;;;;;;9.52;100.00;91427.47;5108465;28;20122;-83
2024/03/11 08:57:01;;;;;;;3.88;2.15;;;;;;;9.43;100.00;91427.44;5108322;28;20490;-83
2024/03/11 08:59:29;;;;;;;40.13;3.92;;;;;;;8.02;100.00;91434.88;5109407;28;20028;-81
2024/03/11 09:01:57;;;;;;;9.70;3.85;;;;;;;7.85;100.00;91439.94;5104130;27;20039;-83
2024/03/11 09:04:24;;;;;;;4.20;2.70;;;;;;;7.59;100.00;91437.91;5106066;28;20027;-82
2024/03/11 09:06:50;;;;;;;4.80;2.83;;;;;;;7.25;100.00;91449.53;5110768;28;20429;-83
2024/03/11 09:09:15;;;;;;;4.50;2.60;;;;;;;7.42;100.00;91445.53;5106963;28;20042;-81
2024/03/11 09:11:41;;;;;;;4.82;2.60;;;;;;;7.95;100.00;91439.75;5110625;27;20070;-81
2024/03/11 09:14:07;;;;;;;3.47;2.13;;;;;;;8.38;100.00;91447.09;5099796;27;20411;-81
2024/03/11 09:16:33;;;;;;;3.78;2.33;;;;;;;8.71;100.00;91445.03;5105939;28;20043;-82
2024/03/11 09:18:59;;;;;;;5.25;2.50;;;;;;;8.87;100.00;91442.00;5089948;28;20036;-82
2024/03/11 09:21:24;;;;;;;8.65;2.53;;;;;;;9.03;100.00;91445.78;5106843;28;20039;-82
2024/03/11 09:23:51;;;;;;;4.18;2.50;;;;;;;8.90;100.00;91449.25;5106356;28;20097;-82
2024/03/11 09:26:17;;;;;;;2.90;1.80;;;;;;;8.99;100.00;91438.84;5101661;28;20043;-82
2024/03/11 09:28:46;;;;;;;4.68;1.98;;;;;;;9.15;100.00;91447.81;5108002;28;20030;-83
2024/03/11 09:31:15;;;;;;;3.10;1.88;;;;;;;8.83;100.00;91444.47;5096226;28;20032;-81
2024/03/11 09:33:44;;;;;;;2.97;1.88;;;;;;;8.81;100.00;91438.75;5106381;28;20034;-82
2024/03/11 09:36:09;;;;;;;3.40;1.95;;;;;;;9.38;100.00;91438.81;5100865;28;20031;-82
2024/03/11 09:38:36;;;;;;;3.28;1.67;;;;;;;9.57;100.00;91441.16;5096546;28;20084;-80
2024/03/11 09:41:16;;;;;;;2.17;1.50;;;;;;;9.72;100.00;91439.19;5078307;28;20039;-81
2024/03/11 09:43:48;;;;;;;2.30;1.50;;;;;;;10.58;100.00;91438.44;5104073;28;20092;-80
2024/03/11 09:46:20;;;;;;;3.63;1.42;;;;;;;11.20;100.00;91439.00;5106761;28;20445;-80
2024/03/11 09:48:51;;;;;;;1.90;1.20;;;;;;;11.72;100.00;91440.59;5098093;28;20089;-81
2024/03/11 09:51:21;;;;;;;1.63;1.20;;;;;;;11.49;100.00;91437.50;5101495;28;20081;-81
2024/03/11 09:53:52;;;;;;;2.83;1.60;;;;;;;11.06;100.00;91441.84;5100757;28;20023;-82
2024/03/11 09:56:21;;;;;;;3.47;1.30;;;;;;;10.30;100.00;91438.00;5107125;28;20507;-80
2024/03/11 09:59:20;;;;;;;2.35;1.40;;;;;;;9.56;100.00;91444.06;5086212;28;20471;-80
2024/03/11 10:01:52;;;;;;;2.65;1.50;;;;;;;8.84;100.00;91448.59;5106293;28;20070;-82
2024/03/11 10:04:20;;;;;;;;;;;;;;;8.12;100.00;91445.06;5106651;28;20107;-82
2024/03/11 10:06:57;;;;;;;5.00;1.80;;;;;;;7.58;100.00;91446.00;5104685;28;20320;-80
2024/03/11 10:09:24;;;;;;;1.55;1.20;;;;;;;7.74;100.00;91446.44;5095555;28;20054;-82
2024/03/11 10:12:09;;;;;;;3.78;1.67;;;;;;;8.36;100.00;91444.00;5100915;28;20027;-81
2024/03/11 10:14:39;;;;;;;2.13;1.50;;;;;;;8.53;100.00;91432.94;5107802;28;20036;-81
2024/03/11 10:17:20;;;;;;;2.53;1.50;;;;;;;9.23;100.00;91433.22;5105284;27;20024;-80
2024/03/11 10:19:53;;;;;;;2.95;1.50;;;;;;;9.66;100.00;91425.50;5108328;28;20395;-81
2024/03/11 10:22:23;;;;;;;2.55;1.40;;;;;;;9.76;100.00;91427.81;5102730;28;20131;-80
2024/03/11 10:24:56;;;;;;;1.73;1.30;;;;;;;9.62;100.00;91437.63;5102936;27;20027;-80
2024/03/11 10:27:23;;;;;;;2.03;1.25;;;;;;;9.50;100.00;91435.63;5112688;27;20027;-82
2024/03/11 10:29:49;;;;;;;1.73;1.20;;;;;;;9.46;100.00;91429.47;5111981;28;20034;-79
2024/03/11 10:32:32;;;;;;;2.55;1.38;;;;;;;9.76;100.00;91419.97;5108154;28;20135;-80
2024/03/11 10:34:58;;;;;;;2.53;1.30;;;;;;;9.63;100.00;91431.31;5105506;28;20109;-80
2024/03/11 10:37:24;;;;;;;1.42;1.10;;;;;;;9.58;100.00;91429.63;5109712;28;20031;-80
2024/03/11 10:39:50;;;;;;;1.98;1.17;;;;;;;9.41;100.00;91428.81;5109067;28;20123;-82
2024/03/11 10:42:28;;;;;;;2.42;1.30;;;;;;;8.90;100.00;91436.97;5099775;27;20024;-80
2024/03/11 10:44:55;;;;;;;2.35;1.50;;;;;;;8.71;100.00;91433.78;5106307;28;20120;-80
2024/03/11 10:47:22;;;;;;;1.98;1.30;;;;;;;8.52;100.00;91440.00;5106866;28;20042;-80
2024/03/11 10:49:49;;;;;;;3.88;1.35;;;;;;;8.57;100.00;91441.69;5106791;28;20031;-81
2024/03/11 10:52:24;;;;;;;1.85;1.20;;;;;;;8.60;100.00;91437.72;5104190;28;20032;-82
2024/03/11 10:54:55;;;;;;;6.32;1.48;;;;;;;8.56;100.00;91442.78;5108294;28;20047;-80
2024/03/11 10:57:24;;;;;;;1.98;1.30;;;;;;;8.77;100.00;91437.06;5102685;28;20043;-80
2024/03/11 10:59:50;;;;;;;2.85;1.40;;;;;;;9.02;100.00;91444.22;5101806;28;20022;-82
2024/03/11 11:02:32;;;;;;;1.77;1.30;;;;;;;9.28;100.00;91439.09;5106040;27;20135;-81
2024/03/11 11:05:01;;;;;;;1.92;1.10;;;;;;;9.48;100.00;91443.00;5103688;28;20024;-81
2024/03/11 11:07:30;;;;;;;2.80;1.13;;;;;;;9.82;100.00;91438.09;5100464;28;20058;-83
2024/03/11 11:10:01;;;;;;;4.13;1.30;;;;;;;9.85;100.00;91443.50;5104585;28;20047;-84
2024/03/11 11:12:30;;;;;;;2.22;0.90;;;;;;;9.80;100.00;91441.81;5104666;28;20034;-83
2024/03/11 11:15:05;;;;;;;1.50;1.15;;;;;;;9.65;100.00;91444.84;5107252;28;20043;-84
2024/03/11 11:17:32;;;;;;;1.73;1.10;;;;;;;9.95;100.00;91443.22;5105825;28;20067;-82
2024/03/11 11:19:58;;;;;;;2.33;1.45;;;;;;;10.90;100.00;91438.19;5104507;28;20062;-81
2024/03/11 11:22:25;;;;;;;2.95;1.00;;;;;;;11.34;100.00;91433.56;5093672;28;20040;-81
2024/03/11 11:24:51;;;;;;;1.50;1.10;;;;;;;11.33;100.00;91439.88;5099752;28;20031;-81
2024/03/11 11:27:24;;;;;;;1.63;1.08;;;;;;;11.11;100.00;91435.66;5099862;28;20024;-80
2024/03/11 11:29:52;;;;;;;0.95;0.93;;;;;;;10.49;100.00;91427.22;5101689;28;20096;-82
2024/03/11 11:32:21;;;;;;;1.15;1.05;;;;;;;10.28;100.00;91421.03;5092925;28;20035;-79
2024/03/11 11:34:54;;;;;;;2.53;1.10;;;;;;;10.26;100.00;91431.81;5105947;28;20489;-80